Time;durP1;ratioP1;P1;durP2;ratioP2;P2;SDS_P1;SDS_P2;PMS_P1;PMS_P2;Temp;Humidity;BMP_temperature;BMP_pressure;BME280_temperature;BME280_humidity;BME280_pressure;Samples;Min_cycle;Max_cycle;Signal;HPM_P1;HPM_P2
2022/03/11 00:01:38;;;;;;;25.37;13.00;;;;;;;1.45;39.77;101974.63;4957140;28;101220;-89
2022/03/11 00:04:03;;;;;;;25.10;12.63;;;;;;;1.60;39.92;102032.06;4938776;28;100742;-89
2022/03/11 00:06:29;;;;;;;27.23;13.90;;;;;;;1.66;40.49;102045.19;4973388;28;97446;-91
2022/03/11 00:08:55;;;;;;;28.77;13.70;;;;;;;1.64;40.04;102013.19;4970048;28;96782;-89
2022/03/11 00:11:20;;;;;;;31.50;13.53;;;;;;;1.77;39.99;102037.72;4971126;28;99960;-89
2022/03/11 00:13:46;;;;;;;25.50;13.27;;;;;;;1.76;39.94;102029.06;4959013;28;101423;-89
2022/03/11 00:16:11;;;;;;;29.13;14.83;;;;;;;1.87;40.40;102034.56;4945164;28;97230;-89
2022/03/11 00:18:37;;;;;;;27.70;14.77;;;;;;;1.87;39.86;102042.34;4961960;28;96904;-89
2022/03/11 00:21:02;;;;;;;26.23;14.77;;;;;;;1.72;40.30;102014.28;4944808;28;101631;-88
2022/03/11 00:23:28;;;;;;;29.87;13.43;;;;;;;1.85;39.91;102036.22;4959349;28;97602;-88
2022/03/11 00:25:54;;;;;;;27.80;14.37;;;;;;;1.66;40.52;102019.28;4939658;28;96650;-89
2022/03/11 00:28:19;;;;;;;29.93;14.83;;;;;;;1.73;40.56;102043.63;4956391;28;97075;-89
2022/03/11 00:30:46;;;;;;;30.77;14.83;;;;;;;1.65;41.00;102033.03;4961459;28;100725;-88
2022/03/11 00:33:11;;;;;;;35.07;15.73;;;;;;;1.56;40.89;102030.19;4953234;28;101435;-89
2022/03/11 00:35:39;;;;;;;28.47;13.90;;;;;;;1.56;41.07;102030.19;5004123;28;97284;-89
2022/03/11 00:38:05;;;;;;;32.00;16.07;;;;;;;1.44;41.47;101997.06;4949991;28;97094;-88
2022/03/11 00:40:30;;;;;;;31.37;16.20;;;;;;;1.47;41.42;102027.31;4941869;28;101334;-89
2022/03/11 00:42:56;;;;;;;31.73;15.93;;;;;;;1.46;41.15;102023.88;4958367;28;101293;-89
2022/03/11 00:45:22;;;;;;;33.93;16.37;;;;;;;1.27;41.46;102003.44;4955739;28;96865;-87
2022/03/11 00:47:48;;;;;;;34.20;16.63;;;;;;;1.49;41.65;102030.84;4967184;28;97409;-88
2022/03/11 00:50:14;;;;;;;35.07;17.30;;;;;;;1.41;41.51;102021.97;4977070;28;101160;-87
2022/03/11 00:52:40;;;;;;;31.83;16.73;;;;;;;1.39;41.38;102019.31;4947572;28;101212;-87
2022/03/11 00:55:07;;;;;;;34.57;17.47;;;;;;;1.36;41.53;102014.94;4955468;28;96677;-88
2022/03/11 00:57:32;;;;;;;32.93;15.63;;;;;;;1.35;41.94;102009.72;4964702;28;97203;-89
2022/03/11 00:59:58;;;;;;;37.10;16.83;;;;;;;1.39;42.00;102013.28;4987155;28;101106;-88
2022/03/11 01:02:25;;;;;;;37.60;16.80;;;;;;;1.01;42.05;101964.69;4958916;28;96736;-87
2022/03/11 01:04:51;;;;;;;33.80;17.10;;;;;;;1.31;42.15;102026.88;4936975;28;97898;-87
2022/03/11 01:07:17;;;;;;;35.33;17.97;;;;;;;1.18;41.91;101988.50;4958045;28;96982;-87
2022/03/11 01:09:42;;;;;;;34.60;17.20;;;;;;;1.40;42.25;102012.44;4941268;28;99924;-87
2022/03/11 01:12:08;;;;;;;35.17;16.83;;;;;;;1.38;41.81;102025.34;4974279;28;98047;-87
2022/03/11 01:14:33;;;;;;;38.80;17.97;;;;;;;1.34;42.41;102016.59;4958472;28;96634;-87
2022/03/11 01:16:59;;;;;;;42.10;16.37;;;;;;;1.38;41.88;102014.97;4954858;28;96947;-89
2022/03/11 01:19:24;;;;;;;35.50;16.57;;;;;;;1.21;42.46;101998.94;4955571;28;101218;-88
2022/03/11 01:21:50;;;;;;;33.57;16.20;;;;;;;1.20;42.86;102006.66;4990384;28;98280;-87
2022/03/11 01:24:16;;;;;;;36.77;17.13;;;;;;;0.96;42.55;101965.38;4986639;28;98046;-88
2022/03/11 01:26:41;;;;;;;34.60;15.97;;;;;;;1.14;42.79;101999.59;4932777;28;96967;-89
2022/03/11 01:29:07;;;;;;;40.00;17.57;;;;;;;1.10;42.78;101998.59;4957367;28;101451;-87
2022/03/11 01:31:32;;;;;;;30.87;16.43;;;;;;;1.17;43.01;102004.00;4938413;28;100093;-89
2022/03/11 01:33:58;;;;;;;35.17;17.70;;;;;;;1.12;42.56;101996.06;4970425;28;96658;-89
2022/03/11 01:36:24;;;;;;;33.53;16.37;;;;;;;1.18;43.03;101997.97;4958249;28;97005;-89
2022/03/11 01:38:49;;;;;;;34.33;17.37;;;;;;;1.06;43.03;101976.06;4955924;28;101257;-90
2022/03/11 01:41:15;;;;;;;38.57;17.77;;;;;;;1.20;42.62;101994.59;4957490;28;97998;-86
2022/03/11 01:44:10;;;;;;;29.70;15.60;;;;;;;1.18;42.49;101996.25;4957699;28;98950;-89
2022/03/11 01:46:36;;;;;;;33.93;16.63;;;;;;;1.22;42.67;101992.06;4955235;28;97471;-86
2022/03/11 01:49:05;;;;;;;36.60;17.17;;;;;;;1.08;42.98;101991.66;4956078;28;101029;-87
2022/03/11 01:51:32;;;;;;;36.50;15.30;;;;;;;1.05;42.54;101995.00;4973544;28;101135;-88
2022/03/11 01:53:58;;;;;;;31.27;15.50;;;;;;;0.92;42.97;101986.81;4940955;28;96925;-88
2022/03/11 01:56:25;;;;;;;31.50;16.50;;;;;;;0.69;43.20;101945.56;4947334;28;97963;-87
2022/03/11 01:58:55;;;;;;;28.40;15.77;;;;;;;0.92;43.51;101979.06;4955923;28;98562;-89
2022/03/11 02:01:21;;;;;;;33.97;17.13;;;;;;;0.72;43.38;101952.56;4957833;28;97144;-89
2022/03/11 02:03:47;;;;;;;32.83;15.80;;;;;;;0.90;43.55;101990.22;4939663;28;96680;-88
2022/03/11 02:06:14;;;;;;;35.27;16.63;;;;;;;0.85;43.38;101976.28;4993440;28;96767;-87
2022/03/11 02:08:41;;;;;;;33.30;15.53;;;;;;;0.84;42.90;101979.69;4940892;28;100245;-89
2022/03/11 02:11:06;;;;;;;30.07;15.70;;;;;;;0.82;43.23;101985.66;4937884;28;101187;-88
2022/03/11 02:14:01;;;;;;;29.97;14.70;;;;;;;0.71;43.11;101967.19;4959149;28;97348;-87
2022/03/11 02:16:31;;;;;;;34.90;15.70;;;;;;;0.77;43.51;101979.44;4944311;28;97004;-88
2022/03/11 02:18:58;;;;;;;31.83;16.00;;;;;;;0.77;43.36;101990.66;4940802;28;102898;-87
2022/03/11 02:21:25;;;;;;;38.57;16.33;;;;;;;0.81;43.12;101995.06;4960967;28;100973;-87
2022/03/11 02:23:56;;;;;;;31.63;15.60;;;;;;;0.63;43.31;101974.69;4960868;28;97132;-88
2022/03/11 02:26:23;;;;;;;31.70;15.47;;;;;;;0.75;43.17;101984.53;4941278;28;96712;-87
2022/03/11 02:28:50;;;;;;;36.20;16.73;;;;;;;0.69;43.24;101976.59;4982715;28;101360;-88
2022/03/11 02:31:18;;;;;;;36.83;15.13;;;;;;;0.64;43.80;101984.22;4942459;28;99753;-89
2022/03/11 02:33:43;;;;;;;34.33;15.90;;;;;;;0.63;43.27;101986.72;4958650;28;97236;-88
2022/03/11 02:36:09;;;;;;;33.00;16.53;;;;;;;0.51;43.78;101969.13;4940263;28;96674;-88
2022/03/11 02:38:35;;;;;;;35.93;16.67;;;;;;;0.58;43.55;101989.19;4957486;28;101379;-88
2022/03/11 02:41:01;;;;;;;35.53;16.13;;;;;;;0.41;43.41;101956.72;4959501;28;101929;-88
2022/03/11 02:43:27;;;;;;;33.53;16.13;;;;;;;0.46;43.47;101970.66;4941747;28;96917;-87
2022/03/11 02:45:53;;;;;;;35.87;17.27;;;;;;;0.51;43.53;101981.16;4965688;28;97208;-87
2022/03/11 02:48:18;;;;;;;34.63;16.83;;;;;;;0.35;43.61;101947.06;4958090;28;101573;-90
2022/03/11 02:50:45;;;;;;;40.63;17.27;;;;;;;0.48;43.35;101950.06;4956458;28;101234;-87
2022/03/11 02:53:10;;;;;;;30.00;15.23;;;;;;;0.55;43.43;101970.97;4988510;28;97182;-89
2022/03/11 02:55:36;;;;;;;29.97;16.33;;;;;;;0.30;43.76;101955.50;4960086;28;97092;-89
2022/03/11 02:58:02;;;;;;;37.53;16.70;;;;;;;0.43;43.69;101970.56;4959538;28;101794;-88
2022/03/11 03:00:28;;;;;;;37.17;17.67;;;;;;;0.38;43.42;101974.72;4954932;28;99451;-87
2022/03/11 03:02:54;;;;;;;31.03;16.03;;;;;;;0.11;44.03;101947.09;4957467;28;96794;-87
2022/03/11 03:05:20;;;;;;;33.47;16.17;;;;;;;-0.01;44.33;101960.44;4955343;28;97063;-88
2022/03/11 03:07:46;;;;;;;34.47;15.30;;;;;;;0.02;43.91;101962.28;4957176;28;101155;-89
2022/03/11 03:10:11;;;;;;;36.07;16.60;;;;;;;0.13;44.24;101972.97;4939592;28;101343;-88
2022/03/11 03:12:38;;;;;;;32.37;16.27;;;;;;;0.15;44.16;101961.88;4993361;28;96721;-87
2022/03/11 03:15:04;;;;;;;37.13;16.33;;;;;;;0.14;44.04;101965.28;4959891;28;96897;-88
2022/03/11 03:17:30;;;;;;;34.30;15.87;;;;;;;0.04;44.25;101963.22;4941606;28;100361;-88
2022/03/11 03:19:55;;;;;;;33.87;16.40;;;;;;;0.06;44.45;101981.31;4958665;28;101421;-89
2022/03/11 03:22:21;;;;;;;32.00;14.63;;;;;;;-0.01;44.12;101957.00;4960278;28;97187;-87
2022/03/11 03:24:47;;;;;;;27.23;13.90;;;;;;;0.14;44.01;101964.41;4961138;28;97050;-88
2022/03/11 03:27:13;;;;;;;34.00;15.20;;;;;;;0.23;44.05;101969.88;4960220;28;98469;-89
2022/03/11 03:29:39;;;;;;;31.33;15.40;;;;;;;0.26;44.21;101982.91;4956186;28;101839;-89
2022/03/11 03:32:05;;;;;;;32.57;14.73;;;;;;;0.17;44.03;101967.97;4979553;28;96717;-87
2022/03/11 03:34:32;;;;;;;28.40;14.53;;;;;;;0.21;44.21;101975.00;4942776;28;97015;-87
2022/03/11 03:36:59;;;;;;;29.60;14.33;;;;;;;0.02;44.22;101944.19;4952466;28;101381;-89
2022/03/11 03:39:25;;;;;;;33.27;14.50;;;;;;;0.13;44.16;101979.03;4939905;28;100199;-89
2022/03/11 03:41:54;;;;;;;32.57;14.93;;;;;;;0.01;44.09;101960.53;4974443;28;97047;-88
2022/03/11 03:44:21;;;;;;;34.73;14.93;;;;;;;-0.19;44.82;101977.88;4940424;28;96964;-87
2022/03/11 03:46:46;;;;;;;29.83;13.97;;;;;;;-0.33;45.53;101971.34;4975302;28;101250;-89
2022/03/11 03:49:13;;;;;;;33.17;14.60;;;;;;;-0.38;45.18;101970.28;4943120;28;101375;-88
2022/03/11 03:51:39;;;;;;;29.50;15.10;;;;;;;-0.36;45.21;101978.97;4957328;28;96803;-87
2022/03/11 03:54:05;;;;;;;28.90;14.83;;;;;;;-0.41;45.23;101960.72;4954479;28;97052;-89
2022/03/11 03:56:31;;;;;;;27.77;13.23;;;;;;;-0.32;44.96;101957.59;4954626;28;101667;-87
2022/03/11 03:58:57;;;;;;;32.57;15.27;;;;;;;-0.18;44.84;101974.47;4959385;28;100839;-88
2022/03/11 04:01:23;;;;;;;32.60;14.43;;;;;;;-0.09;44.66;101974.81;4971848;28;96819;-88
2022/03/11 04:03:48;;;;;;;29.33;13.50;;;;;;;-0.16;45.08;101980.56;4969451;28;96786;-87
2022/03/11 04:06:14;;;;;;;29.13;13.67;;;;;;;-0.25;45.12;101973.38;4955574;28;100853;-90
2022/03/11 04:08:40;;;;;;;27.50;13.80;;;;;;;-0.20;45.22;101973.56;4965442;28;100410;-88
2022/03/11 04:11:05;;;;;;;27.83;13.43;;;;;;;-0.31;45.01;101972.28;4946157;28;97311;-88
2022/03/11 04:13:31;;;;;;;29.73;14.00;;;;;;;-0.33;45.37;101976.50;4959876;28;97204;-87
2022/03/11 04:15:56;;;;;;;33.00;14.40;;;;;;;-0.54;45.70;101979.16;4961108;28;101691;-88
2022/03/11 04:18:23;;;;;;;32.33;15.03;;;;;;;-0.85;45.99;101965.09;4935118;28;101199;-89
2022/03/11 04:20:48;;;;;;;27.10;13.40;;;;;;;-0.59;46.19;101972.94;4954857;28;96823;-87
2022/03/11 04:23:14;;;;;;;30.37;14.20;;;;;;;-0.48;45.57;101971.66;4959480;28;96884;-88
2022/03/11 04:25:39;;;;;;;28.40;14.30;;;;;;;-0.56;46.30;101984.25;4944706;28;100472;-89
2022/03/11 04:28:05;;;;;;;28.17;13.43;;;;;;;-0.61;46.31;101980.63;4944348;28;100840;-88
2022/03/11 04:30:31;;;;;;;30.67;14.43;;;;;;;-0.65;46.48;101978.75;4979041;28;96748;-89
2022/03/11 04:32:57;;;;;;;32.27;14.23;;;;;;;-0.77;46.22;101983.44;4963193;28;96858;-89
2022/03/11 04:35:22;;;;;;;31.63;15.17;;;;;;;-0.95;46.82;101961.28;4941121;28;101539;-87
2022/03/11 04:37:48;;;;;;;32.30;14.57;;;;;;;-0.95;46.90;101978.44;4958461;28;100954;-88
2022/03/11 04:40:14;;;;;;;27.10;14.00;;;;;;;-0.93;47.16;101961.34;4942988;28;97125;-89
2022/03/11 04:42:39;;;;;;;27.93;13.80;;;;;;;-0.80;46.23;101965.28;4960913;28;97268;-88
2022/03/11 04:45:05;;;;;;;33.17;15.00;;;;;;;-0.79;46.40;101983.38;4957753;28;101145;-87
2022/03/11 04:47:31;;;;;;;30.73;14.80;;;;;;;-0.96;46.63;101963.78;4942437;28;101026;-88
2022/03/11 04:49:57;;;;;;;34.97;14.90;;;;;;;-1.07;46.73;101965.97;4942277;28;96730;-88
2022/03/11 04:52:22;;;;;;;53.77;24.40;;;;;;;-1.00;46.96;101962.78;4955983;28;97225;-88
2022/03/11 04:54:48;;;;;;;80.63;36.90;;;;;;;-1.06;46.92;101951.38;4953110;28;100494;-88
2022/03/11 04:57:14;;;;;;;68.57;32.07;;;;;;;-0.87;46.64;101965.84;4958717;28;100113;-87
2022/03/11 04:59:39;;;;;;;48.60;21.93;;;;;;;-1.01;46.69;101970.47;4957513;28;97273;-88
2022/03/11 05:02:05;;;;;;;36.27;17.60;;;;;;;-1.03;47.04;101982.41;4938167;28;97188;-86
2022/03/11 05:04:31;;;;;;;38.83;19.50;;;;;;;-1.19;47.08;101980.94;4941524;28;101311;-88
2022/03/11 05:06:56;;;;;;;46.50;22.87;;;;;;;-1.28;47.49;101985.69;4957948;28;101087;-90
2022/03/11 05:09:22;;;;;;;55.33;26.90;;;;;;;-1.28;47.29;101990.84;4958832;28;96606;-89
2022/03/11 05:11:48;;;;;;;57.57;28.00;;;;;;;-1.25;47.37;101991.88;4938949;28;96812;-89
2022/03/11 05:14:14;;;;;;;38.33;19.47;;;;;;;-1.36;47.18;101962.22;4968068;28;100311;-87
2022/03/11 05:16:39;;;;;;;38.10;17.10;;;;;;;-1.23;47.17;101984.19;4953759;28;97970;-89
2022/03/11 05:19:05;;;;;;;36.00;16.47;;;;;;;-1.27;46.70;101985.78;4941357;28;97070;-88
2022/03/11 05:21:31;;;;;;;32.13;15.43;;;;;;;-1.45;47.42;101990.19;4942168;28;97095;-87
2022/03/11 05:23:57;;;;;;;30.63;14.13;;;;;;;-1.39;47.36;101991.31;4957527;28;101344;-90
2022/03/11 05:26:25;;;;;;;32.23;14.33;;;;;;;-1.47;46.96;101989.22;4941950;28;101286;-90
2022/03/11 05:28:56;;;;;;;35.33;13.93;;;;;;;-1.53;46.70;101966.66;4940992;28;96713;-89
2022/03/11 05:31:22;;;;;;;28.53;13.87;;;;;;;-1.22;47.31;101992.00;4955557;28;96999;-89
2022/03/11 05:33:48;;;;;;;30.73;14.70;;;;;;;-1.33;46.91;101967.50;4987153;28;101203;-89
2022/03/11 05:36:15;;;;;;;31.43;14.33;;;;;;;-1.10;45.97;102011.38;4938354;28;101543;-89
2022/03/11 05:38:40;;;;;;;28.53;14.03;;;;;;;-1.17;46.17;101985.31;4957509;28;97000;-87
2022/03/11 05:41:06;;;;;;;33.47;14.97;;;;;;;-1.17;45.98;101994.75;4972721;28;97213;-88
2022/03/11 05:43:32;;;;;;;30.93;14.37;;;;;;;-1.11;46.23;102013.03;4941582;28;100408;-88
2022/03/11 05:45:57;;;;;;;31.83;14.53;;;;;;;-1.21;45.74;101993.75;4944042;28;99668;-88
2022/03/11 05:48:23;;;;;;;28.70;14.77;;;;;;;-1.22;45.67;102019.44;4959023;28;96948;-89
2022/03/11 05:50:48;;;;;;;29.37;13.87;;;;;;;-1.33;45.99;102007.84;4952455;28;97001;-89
2022/03/11 05:53:15;;;;;;;32.83;14.20;;;;;;;-1.29;46.56;102020.91;4948513;28;101638;-88
2022/03/11 05:55:43;;;;;;;31.50;13.47;;;;;;;-1.31;46.09;102016.50;4943449;28;101802;-89
2022/03/11 05:58:08;;;;;;;27.83;13.57;;;;;;;-1.18;46.06;102006.75;4955210;28;96706;-89
2022/03/11 06:00:34;;;;;;;28.10;14.00;;;;;;;-1.12;45.72;102026.75;4960545;28;97059;-88
2022/03/11 06:02:59;;;;;;;34.47;14.53;;;;;;;-1.74;45.97;101915.16;4970984;28;101596;-87
2022/03/11 06:05:25;;;;;;;27.17;12.87;;;;;;;-1.37;46.16;102005.16;4997540;28;96858;-89
2022/03/11 06:07:50;;;;;;;30.47;13.80;;;;;;;-1.24;45.48;102015.94;4970977;28;96849;-92
2022/03/11 06:10:16;;;;;;;30.13;14.07;;;;;;;-1.09;45.99;102033.72;4982597;28;97043;-87
2022/03/11 06:12:42;;;;;;;32.27;13.57;;;;;;;-1.27;45.57;102011.53;4940628;28;100317;-89
2022/03/11 06:15:09;;;;;;;32.83;14.30;;;;;;;-1.08;45.16;102010.56;4967048;28;99863;-91
2022/03/11 06:17:35;;;;;;;29.07;13.17;;;;;;;-0.85;44.86;102019.22;4993556;28;96764;-88
2022/03/11 06:20:01;;;;;;;30.17;14.10;;;;;;;-0.81;44.61;102009.94;4976734;28;97210;-90
2022/03/11 06:22:26;;;;;;;32.83;14.30;;;;;;;-0.64;44.71;102019.22;4956109;28;101449;-89
2022/03/11 06:24:52;;;;;;;34.23;13.23;;;;;;;-0.48;44.34;102020.66;4946480;28;101211;-91
2022/03/11 06:27:17;;;;;;;26.90;13.20;;;;;;;-0.27;44.59;102024.03;4970793;28;97076;-91
2022/03/11 06:29:43;;;;;;;31.47;13.93;;;;;;;-0.03;43.51;102018.03;4979480;28;97250;-92
2022/03/11 06:32:08;;;;;;;31.83;13.83;;;;;;;0.14;42.92;102040.16;4977992;28;98537;-92
2022/03/11 06:34:34;;;;;;;26.17;12.53;;;;;;;0.06;42.87;102007.16;4940470;28;101160;-92
2022/03/11 06:36:59;;;;;;;32.40;12.67;;;;;;;0.25;42.79;102024.19;4971698;28;97240;-91
2022/03/11 06:39:25;;;;;;;30.60;13.00;;;;;;;0.38;42.33;102018.63;4997526;28;96859;-89
2022/03/11 06:41:51;;;;;;;29.13;13.33;;;;;;;0.31;42.18;101996.84;4942947;28;101341;-92
2022/03/11 06:44:18;;;;;;;27.70;13.20;;;;;;;0.35;42.17;101995.25;4944687;28;101359;-90
2022/03/11 06:46:44;;;;;;;30.50;12.90;;;;;;;0.80;42.16;102026.06;4989844;28;96780;-89
2022/03/11 06:49:11;;;;;;;27.13;13.57;;;;;;;0.96;41.71;102009.34;4955141;28;97041;-87
2022/03/11 06:51:38;;;;;;;29.70;13.30;;;;;;;1.02;41.41;102027.63;4941874;28;101263;-92
2022/03/11 06:54:06;;;;;;;31.47;13.47;;;;;;;1.07;41.51;102008.84;4950542;28;100455;-92
2022/03/11 06:56:32;;;;;;;29.07;13.30;;;;;;;1.40;41.00;102022.78;4989250;28;97389;-91
2022/03/11 06:58:59;;;;;;;28.20;13.63;;;;;;;1.48;40.24;102011.81;4972573;28;97387;-93
2022/03/11 07:01:24;;;;;;;26.87;13.20;;;;;;;1.61;39.84;102020.84;4953740;28;101218;-92
2022/03/11 07:03:50;;;;;;;25.27;13.13;;;;;;;1.74;39.54;102029.84;4996615;28;97822;-90
2022/03/11 07:06:19;;;;;;;32.43;13.87;;;;;;;1.95;39.13;102039.94;4973966;28;96927;-90
2022/03/11 07:08:45;;;;;;;24.70;12.60;;;;;;;1.89;39.32;102017.38;4951552;28;97160;-91
2022/03/11 07:11:11;;;;;;;24.10;12.43;;;;;;;1.94;39.23;101982.09;4965443;28;100488;-92
2022/03/11 07:13:36;;;;;;;32.70;12.57;;;;;;;2.32;38.50;102038.38;4969659;28;100416;-90
2022/03/11 07:16:02;;;;;;;29.07;12.20;;;;;;;2.10;38.27;102034.34;4966489;28;96767;-92
2022/03/11 07:18:28;;;;;;;26.27;12.90;;;;;;;2.20;38.15;102021.66;5001215;28;97044;-93
2022/03/11 07:20:53;;;;;;;23.77;11.20;;;;;;;2.45;38.28;102043.94;5006282;28;98301;-91
2022/03/11 07:23:19;;;;;;;27.33;12.93;;;;;;;2.61;38.44;102039.16;4978994;28;97501;-89
2022/03/11 07:25:44;;;;;;;23.17;12.17;;;;;;;2.72;37.74;102023.03;4969857;28;97172;-91
2022/03/11 07:28:11;;;;;;;26.90;12.80;;;;;;;2.87;37.26;102030.31;4984551;28;97003;-92
2022/03/11 07:30:38;;;;;;;25.20;12.33;;;;;;;2.94;37.07;101995.91;4974012;28;101185;-89
2022/03/11 07:33:03;;;;;;;27.83;11.87;;;;;;;3.17;36.67;102025.00;4939047;28;101605;-92
2022/03/11 07:35:29;;;;;;;27.90;12.67;;;;;;;3.03;36.06;101997.84;4957948;28;97209;-93
2022/03/11 07:37:55;;;;;;;29.00;11.90;;;;;;;3.30;36.27;102018.38;4987495;28;97273;-90
2022/03/11 07:40:20;;;;;;;22.40;11.47;;;;;;;3.51;36.51;102017.09;4988408;28;98117;-91
2022/03/11 07:42:46;;;;;;;23.37;10.60;;;;;;;3.58;36.01;102004.28;4959233;28;101302;-88
2022/03/11 07:45:13;;;;;;;20.90;11.30;;;;;;;3.65;35.47;102004.41;4957257;28;97933;-91
2022/03/11 07:47:40;;;;;;;26.27;11.13;;;;;;;4.02;34.76;102024.25;4949732;28;97151;-89
2022/03/11 07:50:07;;;;;;;21.77;10.73;;;;;;;4.03;35.02;102029.44;4958165;28;100376;-91
2022/03/11 07:52:33;;;;;;;27.37;10.77;;;;;;;4.09;34.37;102026.09;4976598;28;97960;-91
2022/03/11 07:54:58;;;;;;;28.97;11.83;;;;;;;4.23;34.67;102026.38;4982700;28;97241;-90
2022/03/11 07:57:24;;;;;;;23.40;11.20;;;;;;;4.51;33.71;102020.84;4993553;28;96715;-83
2022/03/11 07:59:49;;;;;;;22.90;10.67;;;;;;;4.38;33.30;102018.84;4974370;28;100730;-89
2022/03/11 08:02:15;;;;;;;26.77;11.33;;;;;;;4.43;33.55;102026.75;4982479;28;97482;-88
2022/03/11 08:04:42;;;;;;;20.43;10.87;;;;;;;4.47;33.14;102033.75;4987159;28;96949;-90
2022/03/11 08:07:09;;;;;;;29.73;11.90;;;;;;;4.42;33.04;102028.47;4975341;28;96995;-90
2022/03/11 08:09:35;;;;;;;26.77;10.80;;;;;;;4.39;32.65;102027.53;4973828;28;97929;-91
2022/03/11 08:12:04;;;;;;;22.57;11.00;;;;;;;4.44;32.81;102039.75;4973064;28;97970;-91
2022/03/11 08:14:30;;;;;;;24.77;11.80;;;;;;;4.52;32.80;102012.19;4991108;28;96758;-86
2022/03/11 08:16:56;;;;;;;21.57;11.17;;;;;;;4.80;32.08;102032.59;4975056;28;97081;-87
2022/03/11 08:19:23;;;;;;;20.60;9.80;;;;;;;4.70;31.96;102019.41;4952292;28;101525;-87
2022/03/11 08:21:50;;;;;;;26.63;12.43;;;;;;;5.05;31.79;102029.53;4948688;28;101358;-86
2022/03/11 08:24:15;;;;;;;20.40;11.50;;;;;;;5.29;31.89;102020.34;4938435;28;97200;-85
2022/03/11 08:26:41;;;;;;;18.47;10.37;;;;;;;5.54;30.96;102013.78;4971589;28;97207;-87
2022/03/11 08:29:07;;;;;;;19.80;10.30;;;;;;;5.78;30.48;102018.41;4969128;28;101179;-86
2022/03/11 08:31:32;;;;;;;20.77;10.53;;;;;;;5.67;30.37;102018.28;4965891;28;100951;-85
2022/03/11 08:33:58;;;;;;;21.80;10.47;;;;;;;5.90;30.46;102006.44;4941126;28;96846;-92
2022/03/11 08:36:23;;;;;;;18.57;10.03;;;;;;;5.96;29.25;101996.94;4959388;28;97117;-93
2022/03/11 08:38:49;;;;;;;18.83;10.23;;;;;;;6.17;30.26;102014.56;4971194;28;99226;-93
2022/03/11 08:41:16;;;;;;;22.33;10.33;;;;;;;6.29;29.70;101996.47;4954552;28;100536;-90
2022/03/11 08:43:43;;;;;;;23.07;10.23;;;;;;;6.50;29.36;102012.31;4967271;28;96802;-91
2022/03/11 08:46:09;;;;;;;20.50;10.57;;;;;;;6.38;29.03;101991.31;4985245;28;96820;-91
2022/03/11 08:48:36;;;;;;;20.80;9.87;;;;;;;6.96;29.46;102012.72;4944894;28;100191;-91
2022/03/11 08:51:02;;;;;;;20.53;9.93;;;;;;;6.98;28.93;102012.72;4982774;28;97900;-92
2022/03/11 08:53:27;;;;;;;20.57;9.60;;;;;;;7.37;28.30;102017.34;4987136;28;97078;-90
2022/03/11 08:55:53;;;;;;;22.53;10.30;;;;;;;7.34;28.31;102006.88;4975635;28;98236;-89
2022/03/11 08:58:19;;;;;;;23.90;10.57;;;;;;;7.33;27.99;101954.59;4945766;28;101597;-90
2022/03/11 09:00:45;;;;;;;19.40;9.37;;;;;;;7.54;27.72;102009.63;4951576;28;99995;-91
2022/03/11 09:03:10;;;;;;;17.27;9.47;;;;;;;7.69;27.50;101999.22;4961743;28;96773;-91
2022/03/11 09:05:37;;;;;;;16.17;9.83;;;;;;;7.92;27.20;102014.13;4959085;28;96683;-91
2022/03/11 09:08:03;;;;;;;21.20;10.98;;;;;;;7.99;27.12;102013.28;4975499;28;97471;-89
2022/03/11 09:10:29;;;;;;;19.25;9.05;;;;;;;7.72;27.21;102017.53;4953673;28;101558;-89
2022/03/11 09:12:55;;;;;;;17.88;9.48;;;;;;;7.80;27.04;102003.63;4942267;28;97205;-85
2022/03/11 09:15:20;;;;;;;21.08;10.15;;;;;;;8.01;27.21;102011.56;4967855;28;97060;-88
2022/03/11 09:17:46;;;;;;;19.92;9.57;;;;;;;7.90;26.47;101968.81;4973396;28;100278;-86
2022/03/11 09:20:13;;;;;;;14.93;9.30;;;;;;;7.69;26.48;101999.22;4972885;28;101876;-87
2022/03/11 09:22:40;;;;;;;14.80;9.43;;;;;;;7.69;27.38;101974.81;4973138;28;97747;-88
2022/03/11 09:25:07;;;;;;;15.07;9.50;;;;;;;8.21;27.02;101988.06;4955437;28;97898;-88
2022/03/11 09:27:33;;;;;;;18.92;9.65;;;;;;;8.41;25.93;101971.53;4968604;28;99955;-88
2022/03/11 09:29:59;;;;;;;19.35;9.88;;;;;;;8.43;26.56;101975.03;4971774;28;97886;-89
2022/03/11 09:32:26;;;;;;;17.83;9.15;;;;;;;8.71;26.64;101979.44;4956585;28;97301;-87
2022/03/11 09:34:52;;;;;;;19.27;10.30;;;;;;;8.54;26.09;101973.31;4974266;28;97258;-87
2022/03/11 09:37:18;;;;;;;24.73;10.43;;;;;;;8.37;25.94;101973.25;4984120;28;101417;-86
2022/03/11 09:39:44;;;;;;;15.15;7.97;;;;;;;8.57;26.38;101996.88;4970188;28;100703;-87
2022/03/11 09:42:10;;;;;;;14.48;9.05;;;;;;;8.54;26.03;101992.50;4955850;28;97065;-88
2022/03/11 09:44:38;;;;;;;14.50;8.63;;;;;;;8.76;25.98;101992.53;4970953;28;97029;-85
2022/03/11 09:47:04;;;;;;;15.35;8.48;;;;;;;9.09;25.79;101988.13;4984999;28;97880;-85
2022/03/11 09:49:34;;;;;;;27.15;12.57;;;;;;;9.11;25.48;101992.50;4990768;28;100657;-84
2022/03/11 09:52:00;;;;;;;21.45;11.38;;;;;;;9.37;25.14;101994.22;4956071;28;96755;-84
2022/03/11 09:54:25;;;;;;;15.30;8.95;;;;;;;9.30;24.73;101994.19;4955758;28;97276;-84
2022/03/11 09:56:52;;;;;;;17.15;8.00;;;;;;;9.06;25.08;101987.25;4976017;28;100269;-84
2022/03/11 09:59:18;;;;;;;28.98;10.82;;;;;;;9.01;25.42;101973.28;4938452;28;101648;-84
2022/03/11 10:01:43;;;;;;;14.90;8.82;;;;;;;9.33;24.63;101989.84;4954175;28;97292;-84
2022/03/11 10:04:10;;;;;;;21.05;9.70;;;;;;;9.50;24.34;102006.38;4988495;28;97086;-85
2022/03/11 10:06:42;;;;;;;16.20;9.45;;;;;;;9.47;23.99;101988.91;4956322;28;101619;-90
2022/03/11 10:09:17;;;;;;;17.90;9.15;;;;;;;9.26;24.52;102004.72;4939173;28;101191;-85
2022/03/11 10:11:46;;;;;;;14.57;8.82;;;;;;;9.24;24.79;101981.09;4983633;28;96668;-86
2022/03/11 10:14:12;;;;;;;19.40;9.80;;;;;;;8.77;24.50;101981.19;4971403;28;96904;-85
2022/03/11 10:16:38;;;;;;;14.95;8.65;;;;;;;8.61;24.32;101962.84;4951107;28;101072;-85
2022/03/11 10:19:05;;;;;;;18.98;8.55;;;;;;;8.72;25.05;101989.03;4944574;28;101634;-85
2022/03/11 10:21:30;;;;;;;15.20;9.05;;;;;;;8.69;24.85;101990.78;4956404;28;97391;-83
2022/03/11 10:23:56;;;;;;;16.80;9.13;;;;;;;8.61;25.78;101989.03;4973224;28;97245;-81
2022/03/11 10:26:31;;;;;;;15.30;9.23;;;;;;;8.57;24.97;101970.69;4966734;28;97944;-83
2022/03/11 10:29:02;;;;;;;14.90;8.60;;;;;;;8.47;25.01;101969.81;4957143;28;101704;-84
2022/03/11 10:31:32;;;;;;;20.73;9.82;;;;;;;8.38;24.52;101988.13;4962464;28;96906;-82
2022/03/11 10:34:43;;;;;;;18.92;9.52;;;;;;;8.34;25.15;101976.75;4959394;28;96937;-84
2022/03/11 10:37:12;;;;;;;15.13;8.88;;;;;;;8.07;25.41;101980.19;4961036;28;98572;-84
2022/03/11 10:39:40;;;;;;;14.07;8.27;;;;;;;7.84;25.16;101974.88;4956179;28;97461;-81
2022/03/11 10:42:27;;;;;;;18.80;8.98;;;;;;;7.85;25.82;101984.50;4971537;28;96751;-82
2022/03/11 10:44:59;;;;;;;18.45;9.50;;;;;;;7.66;25.30;101985.28;4956939;28;96807;-82
2022/03/11 10:47:30;;;;;;;13.75;8.45;;;;;;;7.57;25.18;101977.41;4971483;28;98124;-81
2022/03/11 10:50:01;;;;;;;16.57;8.93;;;;;;;7.17;25.74;101972.81;4972099;28;102236;-83
2022/03/11 10:52:39;;;;;;;13.73;8.68;;;;;;;6.86;25.85;101979.56;4956586;28;97085;-82
2022/03/11 10:55:29;;;;;;;22.88;9.55;;;;;;;6.92;26.13;101974.41;4983703;28;97167;-83
2022/03/11 10:57:56;;;;;;;17.07;9.27;;;;;;;6.94;25.89;101962.22;4952021;28;101148;-82
2022/03/11 11:00:25;;;;;;;19.30;8.07;;;;;;;6.97;25.93;101977.03;4964244;28;101740;-81
2022/03/11 11:02:55;;;;;;;16.13;8.43;;;;;;;6.84;25.46;101973.47;4957314;28;97287;-81
2022/03/11 11:05:21;;;;;;;13.68;7.88;;;;;;;6.65;25.94;101976.78;4971709;28;97236;-83
2022/03/11 11:07:47;;;;;;;20.37;7.87;;;;;;;6.60;26.10;101934.09;4938602;28;101215;-83
2022/03/11 11:10:15;;;;;;;16.80;9.07;;;;;;;6.55;26.15;101927.13;4951834;28;101116;-83
2022/03/11 11:12:41;;;;;;;13.07;7.53;;;;;;;6.71;26.13;101963.78;4984123;28;97150;-84